Time;durP1;ratioP1;P1;durP2;ratioP2;P2;SDS_P1;SDS_P2;PMS_P1;PMS_P2;Temp;Humidity;BMP_temperature;BMP_pressure;BME280_temperature;BME280_humidity;BME280_pressure;Samples;Min_cycle;Max_cycle;Signal;HPM_P1;HPM_P2
2022/07/31 00:01:53;;;;;;;10.05;9.30;;;;;;;23.10;100.00;-7977.81;5071604;28;20635;-63
2022/07/31 00:04:22;;;;;;;10.07;9.48;;;;;;;23.22;100.00;-6352.00;5071131;28;20199;-63
2022/07/31 00:06:49;;;;;;;10.13;9.60;;;;;;;23.37;100.00;-6027.13;5071458;28;20712;-63
2022/07/31 00:09:16;;;;;;;9.88;9.48;;;;;;;23.38;100.00;-6352.72;5070994;28;20200;-63
2022/07/31 00:11:43;;;;;;;9.75;9.18;;;;;;;23.47;100.00;-6027.53;5071069;28;20192;-64
2022/07/31 00:14:11;;;;;;;10.25;9.38;;;;;;;23.43;100.00;-5701.81;5071002;28;20251;-63
2022/07/31 00:16:39;;;;;;;10.25;9.75;;;;;;;23.55;100.00;-3095.94;5071465;28;20181;-62
2022/07/31 00:19:06;;;;;;;10.80;9.93;;;;;;;23.65;100.00;-5376.84;5071035;28;20227;-63
2022/07/31 00:21:33;;;;;;;9.68;9.25;;;;;;;23.72;100.00;-6028.50;5071051;28;20196;-64
2022/07/31 00:24:01;;;;;;;10.35;9.57;;;;;;;23.78;100.00;-5377.22;5071117;28;20188;-63
2022/07/31 00:26:28;;;;;;;9.82;9.43;;;;;;;23.72;100.00;-4399.56;5071096;28;20208;-64
2022/07/31 00:28:54;;;;;;;9.98;9.07;;;;;;;23.70;100.00;-3747.75;5070881;28;20201;-63
2022/07/31 00:31:23;;;;;;;10.18;9.73;;;;;;;23.58;100.00;165.03;5070932;28;20185;-64
2022/07/31 00:33:51;;;;;;;9.63;9.10;;;;;;;23.64;100.00;2450.19;5070789;28;20184;-63
2022/07/31 00:36:18;;;;;;;10.15;9.38;;;;;;;23.62;100.00;6370.38;5071404;28;20604;-63
2022/07/31 00:38:44;;;;;;;10.02;9.73;;;;;;;23.41;100.00;9963.50;5074616;28;20628;-63
2022/07/31 00:41:12;;;;;;;10.32;9.82;;;;;;;23.62;100.00;11932.13;5074908;28;20272;-64
2022/07/31 00:43:39;;;;;;;10.48;9.98;;;;;;;23.57;100.00;10948.91;5074947;28;20208;-63
2022/07/31 00:46:05;;;;;;;9.80;9.48;;;;;;;23.70;100.00;14882.66;5074460;28;20185;-63
2022/07/31 00:48:33;;;;;;;10.45;9.82;;;;;;;23.67;100.00;20130.25;5074686;28;20582;-63
2022/07/31 00:51:02;;;;;;;9.60;9.00;;;;;;;23.63;100.00;17175.72;5074386;28;20189;-63
2022/07/31 00:53:29;;;;;;;10.00;9.50;;;;;;;23.54;100.00;11602.75;5074765;28;20196;-63
2022/07/31 00:55:56;;;;;;;9.98;9.57;;;;;;;23.67;100.00;8987.56;5074773;28;20651;-63
2022/07/31 00:58:23;;;;;;;10.25;9.73;;;;;;;23.57;100.00;6696.47;5074316;28;20189;-63
2022/07/31 01:00:50;;;;;;;9.95;9.65;;;;;;;23.49;100.00;7675.78;5074495;28;20189;-63
2022/07/31 01:03:17;;;;;;;9.85;9.30;;;;;;;23.41;100.00;5060.16;5074517;28;20181;-63
2022/07/31 01:05:44;;;;;;;10.43;9.48;;;;;;;23.35;100.00;2773.75;5074517;28;20185;-62
2022/07/31 01:08:12;;;;;;;11.18;10.43;;;;;;;23.35;100.00;-162.50;5074307;28;20201;-63
2022/07/31 01:10:48;;;;;;;11.15;10.38;;;;;;;23.36;100.00;-3421.88;5074454;28;20208;-64
2022/07/31 01:13:25;;;;;;;11.77;10.85;;;;;;;23.20;100.00;-6677.31;5074098;28;20228;-63
2022/07/31 01:15:54;;;;;;;12.02;10.98;;;;;;;23.18;100.00;-12203.78;5074175;28;20188;-63
2022/07/31 01:18:22;;;;;;;12.98;12.05;;;;;;;23.38;100.00;-13830.69;5074319;28;20185;-62
2022/07/31 01:20:50;;;;;;;13.40;12.50;;;;;;;23.34;100.00;-16426.75;5073820;28;20200;-62
2022/07/31 01:23:41;;;;;;;12.85;11.95;;;;;;;23.18;100.00;-18369.47;5073795;28;20217;-64
2022/07/31 01:26:23;;;;;;;13.48;12.20;;;;;;;23.36;100.00;-18375.41;5074184;28;20624;-63
2022/07/31 01:29:02;;;;;;;13.15;12.40;;;;;;;23.36;100.00;-18375.41;5073908;28;20591;-63
2022/07/31 01:31:35;;;;;;;13.18;12.27;;;;;;;23.21;100.00;-18372.06;5073991;28;20184;-63
2022/07/31 01:34:08;;;;;;;13.73;12.43;;;;;;;23.19;100.00;-18371.59;5073608;28;20224;-63
2022/07/31 01:36:39;;;;;;;13.23;11.90;;;;;;;23.23;100.00;-18372.53;5073040;28;20634;-62
2022/07/31 01:39:06;;;;;;;12.68;11.85;;;;;;;23.22;100.00;-18372.31;5073476;28;20276;-63
2022/07/31 01:41:38;;;;;;;11.95;11.05;;;;;;;23.07;100.00;-18368.75;5073858;28;20639;-62
2022/07/31 01:44:07;;;;;;;11.50;11.00;;;;;;;22.96;100.00;-18366.13;5074027;28;20651;-63
2022/07/31 01:46:36;;;;;;;12.77;11.60;;;;;;;22.89;100.00;-18364.34;5073722;28;20193;-63
2022/07/31 01:49:04;;;;;;;12.68;11.98;;;;;;;22.82;100.00;-18362.81;5073034;28;20575;-63
2022/07/31 01:51:32;;;;;;;12.23;11.63;;;;;;;22.61;100.00;-18357.81;5073446;28;20184;-62
2022/07/31 01:54:02;;;;;;;12.05;11.45;;;;;;;22.23;100.00;-18349.03;5073395;28;20185;-63
2022/07/31 01:56:30;;;;;;;12.63;11.77;;;;;;;22.28;100.00;-18350.22;5073688;28;20185;-63
2022/07/31 01:58:59;;;;;;;11.43;10.75;;;;;;;22.05;100.00;-18344.75;5073367;28;20180;-63
2022/07/31 02:01:30;;;;;;;11.30;10.80;;;;;;;22.29;100.00;-18350.44;5073133;28;20193;-63
2022/07/31 02:03:57;;;;;;;10.82;10.32;;;;;;;22.55;100.00;-18356.50;5073295;28;20185;-63
2022/07/31 02:06:26;;;;;;;11.98;11.38;;;;;;;22.27;100.00;-18349.88;5072819;28;20181;-62
2022/07/31 02:08:55;;;;;;;12.27;11.48;;;;;;;22.87;100.00;-17713.84;5073273;28;20208;-63
2022/07/31 02:11:22;;;;;;;11.70;11.00;;;;;;;22.90;100.00;-17390.38;5072893;28;20181;-63
2022/07/31 02:13:52;;;;;;;13.82;12.90;;;;;;;22.76;100.00;-18361.38;5072840;28;20235;-63
2022/07/31 02:16:20;;;;;;;17.05;15.98;;;;;;;22.50;100.00;-18355.22;5073046;28;20635;-63
2022/07/31 02:18:50;;;;;;;18.90;17.08;;;;;;;22.58;100.00;-18357.09;5072920;28;20571;-63
2022/07/31 02:21:17;;;;;;;17.65;16.25;;;;;;;22.54;100.00;-18356.28;5072697;28;20220;-64
2022/07/31 02:23:44;;;;;;;19.48;17.45;;;;;;;22.79;100.00;-18362.09;5072798;28;20194;-63
2022/07/31 02:26:13;;;;;;;17.15;16.15;;;;;;;22.87;100.00;-18364.00;5072501;28;20177;-63
2022/07/31 02:28:43;;;;;;;18.48;17.10;;;;;;;22.97;100.00;-18366.38;5072412;28;20208;-63
2022/07/31 02:31:10;;;;;;;19.10;17.40;;;;;;;;;;5072359;28;20196;-63
2022/07/31 02:33:39;;;;;;;18.58;17.48;;;;;;;23.11;100.00;-18369.59;5072702;28;20185;-63
2022/07/31 02:36:10;;;;;;;19.52;17.98;;;;;;;23.18;100.00;-18371.25;5072742;28;20658;-63
2022/07/31 02:38:39;;;;;;;17.63;16.35;;;;;;;23.16;100.00;-18370.88;5072630;28;20627;-64
2022/07/31 02:41:07;;;;;;;17.90;16.67;;;;;;;23.18;100.00;-18371.34;5072230;28;20189;-63
2022/07/31 02:43:35;;;;;;;16.65;15.35;;;;;;;23.08;100.00;-18369.00;5072517;28;20670;-63
2022/07/31 02:46:04;;;;;;;18.20;16.83;;;;;;;23.09;100.00;-18369.22;5071243;28;20185;-64
2022/07/31 02:48:32;;;;;;;18.05;16.75;;;;;;;23.19;100.00;-18371.47;5072331;28;20216;-62
2022/07/31 02:50:59;;;;;;;17.35;15.85;;;;;;;23.23;100.00;-18372.44;5072301;28;20185;-63
2022/07/31 02:53:30;;;;;;;16.52;15.32;;;;;;;23.19;100.00;-18371.47;5071995;28;20279;-64
2022/07/31 02:55:58;;;;;;;17.38;16.20;;;;;;;23.12;100.00;-18369.81;5072194;28;20563;-64
2022/07/31 02:58:24;;;;;;;17.58;16.17;;;;;;;23.10;100.00;-18369.47;5071905;28;20188;-64
2022/07/31 03:00:59;;;;;;;18.23;16.90;;;;;;;23.21;100.00;-18371.97;5071848;28;20207;-62
2022/07/31 03:03:26;;;;;;;18.13;16.75;;;;;;;23.21;100.00;-18372.06;5071829;28;20192;-63
2022/07/31 03:05:53;;;;;;;16.88;15.57;;;;;;;23.20;100.00;-18371.84;5071997;28;20208;-63
2022/07/31 03:08:20;;;;;;;18.13;16.88;;;;;;;23.18;100.00;-18371.34;5072037;28;20681;-62
2022/07/31 03:10:49;;;;;;;17.23;15.80;;;;;;;23.11;100.00;-18369.69;5071739;28;20184;-64
2022/07/31 03:13:16;;;;;;;16.95;15.85;;;;;;;23.07;100.00;-18368.75;5071713;28;20238;-63
2022/07/31 03:15:44;;;;;;;17.83;16.35;;;;;;;23.06;100.00;-18368.41;5071692;28;20263;-63
2022/07/31 03:18:13;;;;;;;18.95;17.10;;;;;;;22.85;100.00;-18363.53;5072034;28;20639;-64
2022/07/31 03:20:42;;;;;;;20.63;18.70;;;;;;;23.15;100.00;-18370.66;5071716;28;20198;-62
2022/07/31 03:23:11;;;;;;;17.63;16.33;;;;;;;23.25;100.00;-18372.91;5071955;28;20258;-63
2022/07/31 03:25:39;;;;;;;16.95;15.32;;;;;;;23.23;100.00;-18372.53;5071872;28;20188;-63
2022/07/31 03:28:07;;;;;;;16.35;15.05;;;;;;;23.21;100.00;-18372.06;5071795;28;20191;-63
2022/07/31 03:30:34;;;;;;;16.63;15.70;;;;;;;23.47;100.00;-18378.00;5071560;28;20189;-63
2022/07/31 03:33:02;;;;;;;18.23;15.68;;;;;;;23.63;100.00;-18381.81;5071781;28;20189;-65
2022/07/31 03:35:30;;;;;;;17.58;16.10;;;;;;;23.86;100.00;-18387.25;5071449;28;20280;-65
2022/07/31 03:37:57;;;;;;;15.80;14.73;;;;;;;23.79;100.00;-18385.59;5071396;28;20189;-62
2022/07/31 03:40:24;;;;;;;17.95;16.73;;;;;;;24.08;100.00;-18392.34;5071973;28;20274;-63
2022/07/31 03:42:53;;;;;;;18.50;17.13;;;;;;;24.36;100.00;-18398.88;5071652;28;20540;-63
2022/07/31 03:45:22;;;;;;;15.43;13.90;;;;;;;24.44;100.00;-17424.19;5071334;28;20246;-63
2022/07/31 03:47:49;;;;;;;17.13;15.57;;;;;;;24.40;100.00;-15473.19;5071594;28;20631;-63
2022/07/31 03:50:17;;;;;;;23.25;15.77;;;;;;;24.64;100.00;-12223.72;5071570;28;20720;-63
2022/07/31 03:52:45;;;;;;;17.52;15.93;;;;;;;24.93;100.00;-10272.84;5071634;28;20615;-63
2022/07/31 03:55:13;;;;;;;22.15;19.95;;;;;;;25.23;100.00;-10601.97;5071259;28;20189;-63
2022/07/31 03:57:41;;;;;;;21.52;19.75;;;;;;;25.53;100.00;-9952.91;5071271;28;20216;-63
2022/07/31 04:00:10;;;;;;;21.67;19.85;;;;;;;25.78;100.00;-5056.00;5071137;28;20226;-64
2022/07/31 04:02:38;;;;;;;21.85;19.85;;;;;;;25.80;100.00;178.28;5071571;28;20239;-63
2022/07/31 04:05:06;;;;;;;21.73;19.83;;;;;;;25.87;100.00;1816.34;5071337;28;20188;-63
2022/07/31 04:07:33;;;;;;;23.63;19.38;;;;;;;26.04;100.00;7721.56;5071437;28;20189;-64
2022/07/31 04:10:01;;;;;;;19.55;17.88;;;;;;;26.10;100.00;11993.53;5071073;28;20211;-63
2022/07/31 04:12:28;;;;;;;20.08;18.17;;;;;;;26.07;100.00;10678.03;5072475;28;20235;-63
2022/07/31 04:14:55;;;;;;;20.80;19.20;;;;;;;25.83;100.00;4765.59;5075014;28;20185;-64
2022/07/31 04:17:22;;;;;;;21.35;19.42;;;;;;;25.90;100.00;-148.53;5075111;28;20203;-63
2022/07/31 04:19:50;;;;;;;23.63;21.30;;;;;;;26.13;100.00;-474.81;5073843;28;20191;-63
2022/07/31 04:22:17;;;;;;;23.73;21.70;;;;;;;26.20;100.00;1491.41;5075186;28;20639;-63
2022/07/31 04:24:44;;;;;;;21.10;19.33;;;;;;;26.37;100.00;4444.59;5075105;28;20623;-63
2022/07/31 04:27:11;;;;;;;22.25;20.42;;;;;;;26.60;100.00;7403.13;5074803;28;20185;-62
2022/07/31 04:29:38;;;;;;;22.70;20.15;;;;;;;26.76;100.00;9049.50;5075048;28;20212;-63
2022/07/31 04:32:05;;;;;;;22.88;20.55;;;;;;;26.73;100.00;13984.22;5075011;28;20184;-64
2022/07/31 04:34:32;;;;;;;21.13;19.65;;;;;;;27.06;100.00;21579.19;5074638;28;20283;-63
2022/07/31 04:37:00;;;;;;;23.10;19.08;;;;;;;26.91;100.00;19593.03;5074530;28;20191;-64
2022/07/31 04:39:27;;;;;;;20.63;19.00;;;;;;;27.25;100.00;28530.31;5074482;28;20255;-63
2022/07/31 04:41:54;;;;;;;19.35;18.05;;;;;;;27.41;100.00;33507.75;5074822;28;20584;-64
2022/07/31 04:44:21;;;;;;;19.77;17.90;;;;;;;27.71;100.00;42494.44;5074882;28;20196;-63
2022/07/31 04:46:48;;;;;;;20.02;18.30;;;;;;;28.06;100.00;55857.69;5074421;28;20233;-63
2022/07/31 04:49:15;;;;;;;20.63;19.02;;;;;;;28.19;100.00;70605.97;5074255;28;20205;-63
2022/07/31 04:51:43;;;;;;;20.02;18.27;;;;;;;28.17;100.00;98911.66;5074609;28;20212;-63
2022/07/31 04:54:12;;;;;;;19.70;17.92;;;;;;;28.07;100.00;121296.38;5074202;28;20272;-63
2022/07/31 04:56:41;;;;;;;19.02;17.15;;;;;;;28.09;100.00;109063.31;5074624;28;20632;-64
2022/07/31 04:59:11;;;;;;;20.75;18.65;;;;;;;28.05;100.00;103970.16;5073630;28;20619;-63
2022/07/31 05:01:38;;;;;;;20.80;18.55;;;;;;;28.33;100.00;130557.66;5074464;28;20646;-64
2022/07/31 05:04:05;;;;;;;24.60;18.17;;;;;;;28.49;100.00;142913.66;5074367;28;20208;-64
2022/07/31 05:06:34;;;;;;;19.38;17.50;;;;;;;28.62;100.00;153242.28;5074467;28;20192;-63
2022/07/31 05:09:01;;;;;;;18.27;16.92;;;;;;;28.69;100.00;153258.91;5073958;28;20209;-63
2022/07/31 05:11:29;;;;;;;20.73;16.17;;;;;;;28.86;100.00;153302.50;5074314;28;20184;-64
2022/07/31 05:13:58;;;;;;;18.33;16.77;;;;;;;28.96;100.00;153329.41;5073680;28;20237;-64
2022/07/31 05:16:26;;;;;;;16.13;15.10;;;;;;;29.46;100.00;153456.25;5073975;28;20280;-64
2022/07/31 05:18:53;;;;;;;16.17;15.10;;;;;;;29.37;100.00;153433.19;5074164;28;20498;-63
2022/07/31 05:21:21;;;;;;;11.90;11.10;;;;;;;29.54;100.00;153475.44;5074093;28;20228;-63
2022/07/31 05:23:48;;;;;;;12.15;11.70;;;;;;;29.44;100.00;153451.16;5072683;28;20196;-63
2022/07/31 05:26:16;;;;;;;13.45;12.77;;;;;;;29.45;100.00;153453.69;5073817;28;20631;-63
2022/07/31 05:28:45;;;;;;;13.00;11.93;;;;;;;29.64;100.00;153499.81;5073653;28;20193;-64
2022/07/31 05:31:12;;;;;;;13.68;12.70;;;;;;;29.61;100.00;153492.13;5074033;28;20185;-64
2022/07/31 05:33:40;;;;;;;11.43;11.00;;;;;;;29.79;100.00;153538.28;5073656;28;20188;-63
2022/07/31 05:36:07;;;;;;;10.45;9.77;;;;;;;30.15;100.00;153629.28;5073857;28;20177;-63
2022/07/31 05:38:35;;;;;;;8.30;8.00;;;;;;;30.41;100.00;153695.94;5073551;28;20587;-63
2022/07/31 05:41:02;;;;;;;7.63;7.40;;;;;;;30.52;100.00;153724.16;5073375;28;20195;-63
2022/07/31 05:43:28;;;;;;;7.10;6.82;;;;;;;30.89;100.00;153817.78;5073606;28;20192;-63
2022/07/31 05:45:57;;;;;;;6.20;6.00;;;;;;;31.13;100.00;153879.34;5073586;28;20556;-62
2022/07/31 05:48:24;;;;;;;6.55;6.25;;;;;;;31.26;100.00;153911.41;5073501;28;20511;-63
2022/07/31 05:50:51;;;;;;;6.10;5.90;;;;;;;31.32;100.00;153925.53;5073525;28;20219;-63
2022/07/31 05:53:19;;;;;;;7.13;6.72;;;;;;;31.33;100.00;153929.34;5073556;28;20188;-63
2022/07/31 05:55:48;;;;;;;6.97;6.35;;;;;;;31.39;100.00;153944.75;5073122;28;20185;-63
2022/07/31 05:58:16;;;;;;;5.93;5.60;;;;;;;31.68;100.00;154017.91;5073498;28;20540;-64
2022/07/31 06:00:44;;;;;;;6.72;6.53;;;;;;;31.92;100.00;154079.47;5072924;28;20198;-64
2022/07/31 06:03:13;;;;;;;6.13;5.93;;;;;;;32.11;100.00;154128.31;5073055;28;20185;-63
2022/07/31 06:05:40;;;;;;;6.20;6.00;;;;;;;32.28;100.00;154169.34;5073353;28;20656;-64
2022/07/31 06:08:08;;;;;;;6.50;6.20;;;;;;;32.53;100.00;154233.50;5072902;28;20189;-64
2022/07/31 06:10:36;;;;;;;6.53;6.32;;;;;;;32.74;100.00;154286.19;5073109;28;20258;-64
2022/07/31 06:13:03;;;;;;;6.07;5.88;;;;;;;33.12;100.00;154382.44;5072661;28;20240;-63
2022/07/31 06:15:30;;;;;;;6.93;6.32;;;;;;;33.64;100.00;154514.75;5073087;28;20185;-63
2022/07/31 06:17:57;;;;;;;5.75;5.55;;;;;;;34.03;100.00;154613.69;5072610;28;20192;-64
2022/07/31 06:20:26;;;;;;;6.38;6.18;;;;;;;34.44;100.00;154719.06;5072647;28;20192;-63
2022/07/31 06:22:53;;;;;;;7.15;5.60;;;;;;;34.49;100.00;154731.94;5072591;28;20221;-63
2022/07/31 06:25:20;;;;;;;6.10;5.80;;;;;;;34.72;100.00;154789.78;5072532;28;20192;-63
2022/07/31 06:27:47;;;;;;;6.22;5.85;;;;;;;34.62;100.00;154765.34;5072541;28;20199;-63
2022/07/31 06:30:14;;;;;;;6.60;6.10;;;;;;;34.60;100.00;154758.91;5072947;28;20295;-64
2022/07/31 06:32:41;;;;;;;5.70;5.45;;;;;;;34.72;100.00;154789.78;5072828;28;20550;-64
2022/07/31 06:35:09;;;;;;;6.40;6.10;;;;;;;34.80;99.01;154811.63;5072354;28;20185;-63
2022/07/31 06:37:38;;;;;;;6.18;5.82;;;;;;;35.20;98.61;154913.22;5072223;28;20275;-64
2022/07/31 06:40:06;;;;;;;6.10;5.90;;;;;;;35.42;94.98;154968.50;5072594;28;20239;-64
2022/07/31 06:42:33;;;;;;;6.78;6.43;;;;;;;35.51;93.75;154991.63;5072142;28;20195;-63
2022/07/31 06:44:59;;;;;;;6.25;5.93;;;;;;;34.96;96.06;154850.19;5072170;28;20192;-64
2022/07/31 06:47:26;;;;;;;6.47;6.18;;;;;;;35.34;93.35;154947.94;5071297;28;20563;-63
2022/07/31 06:49:54;;;;;;;6.63;6.22;;;;;;;35.47;97.26;154981.34;5071997;28;20209;-64
2022/07/31 06:52:23;;;;;;;6.85;6.38;;;;;;;35.57;95.10;155007.03;5072197;28;20185;-63
2022/07/31 06:54:51;;;;;;;6.57;6.18;;;;;;;35.35;92.27;154950.47;5072425;28;20216;-63
2022/07/31 06:57:18;;;;;;;6.63;6.28;;;;;;;35.24;93.70;154923.50;5072283;28;20189;-64
2022/07/31 06:59:45;;;;;;;6.55;6.15;;;;;;;35.81;90.38;155066.25;5072210;28;20188;-64
2022/07/31 07:02:13;;;;;;;6.47;6.22;;;;;;;35.99;89.40;155112.50;5072271;28;20195;-63
2022/07/31 07:04:40;;;;;;;6.38;5.97;;;;;;;35.96;89.35;155106.09;5072211;28;20185;-64
2022/07/31 07:07:06;;;;;;;6.60;6.30;;;;;;;36.32;86.98;155197.47;5071675;28;20210;-64
2022/07/31 07:09:33;;;;;;;6.65;6.38;;;;;;;36.42;86.86;155221.84;5072179;28;20208;-64
2022/07/31 07:12:02;;;;;;;6.10;5.80;;;;;;;36.27;86.77;155184.59;5071996;28;20188;-63
2022/07/31 07:14:28;;;;;;;7.00;6.30;;;;;;;36.11;87.66;155143.44;5070640;28;20242;-63
2022/07/31 07:16:55;;;;;;;6.55;6.30;;;;;;;35.82;88.57;155070.06;5071601;28;20188;-63
2022/07/31 07:19:22;;;;;;;6.55;6.10;;;;;;;35.87;87.77;155082.94;5071732;28;20540;-63
2022/07/31 07:21:49;;;;;;;6.15;5.85;;;;;;;36.04;86.38;155125.38;5071601;28;20191;-64
2022/07/31 07:24:16;;;;;;;6.28;6.07;;;;;;;35.76;87.60;155053.38;5071580;28;20188;-63
2022/07/31 07:26:43;;;;;;;5.90;5.65;;;;;;;35.54;87.99;154998.03;5071644;28;20185;-63
2022/07/31 07:29:11;;;;;;;7.60;6.60;;;;;;;35.22;91.89;154918.31;5071606;28;20188;-63
2022/07/31 07:31:38;;;;;;;6.53;6.03;;;;;;;35.50;88.79;154987.75;5071676;28;20185;-63
2022/07/31 07:34:07;;;;;;;5.97;5.78;;;;;;;35.57;86.77;155005.75;5071462;28;20199;-63
2022/07/31 07:36:34;;;;;;;6.40;6.10;;;;;;;35.34;88.97;154947.94;5071784;28;20195;-64
2022/07/31 07:39:02;;;;;;;6.45;5.97;;;;;;;35.24;87.78;154922.19;5071531;28;20191;-64
2022/07/31 07:41:29;;;;;;;5.63;5.43;;;;;;;35.45;87.81;154976.19;5071837;28;20259;-64
2022/07/31 07:43:55;;;;;;;6.70;5.70;;;;;;;35.50;88.64;154987.75;5071694;28;20204;-63
2022/07/31 07:46:24;;;;;;;6.18;5.72;;;;;;;35.73;85.55;155048.22;5071127;28;20189;-63
2022/07/31 07:48:51;;;;;;;6.00;5.40;;;;;;;35.91;84.58;155093.22;5071574;28;20213;-64
2022/07/31 07:51:19;;;;;;;5.75;5.32;;;;;;;36.24;78.74;155176.88;5071556;28;20584;-63
2022/07/31 07:53:47;;;;;;;5.80;5.60;;;;;;;36.03;78.78;155122.81;5071581;28;20279;-63
2022/07/31 07:56:13;;;;;;;6.10;5.90;;;;;;;36.34;80.29;155201.28;5071367;28;20219;-64
2022/07/31 07:58:41;;;;;;;5.63;5.40;;;;;;;36.45;75.65;155230.84;5071564;28;20188;-64
2022/07/31 08:01:08;;;;;;;5.47;5.28;;;;;;;36.56;74.78;155259.19;5071300;28;20185;-64
2022/07/31 08:03:36;;;;;;;6.68;6.15;;;;;;;36.67;78.21;155284.91;5071281;28;20276;-64
2022/07/31 08:06:03;;;;;;;5.78;5.38;;;;;;;36.76;76.42;155308.06;5070306;28;20524;-63
2022/07/31 08:08:30;;;;;;;5.72;5.53;;;;;;;37.15;72.55;155408.50;5071467;28;20188;-63
2022/07/31 08:10:57;;;;;;;5.72;5.53;;;;;;;37.36;74.56;155462.53;5069856;28;20215;-63
2022/07/31 08:13:24;;;;;;;6.10;5.80;;;;;;;37.41;66.90;155475.41;5071451;28;20281;-62
2022/07/31 08:15:51;;;;;;;5.85;5.65;;;;;;;37.01;67.76;155373.69;5071156;28;20228;-63
2022/07/31 08:18:18;;;;;;;6.22;5.90;;;;;;;37.12;71.32;155400.78;5071504;28;20199;-63
2022/07/31 08:20:46;;;;;;;6.22;5.72;;;;;;;37.45;68.65;155485.69;5071328;28;20624;-63
2022/07/31 08:23:13;;;;;;;5.82;5.63;;;;;;;37.62;65.73;155528.22;5070985;28;20185;-64
2022/07/31 08:25:40;;;;;;;5.90;5.60;;;;;;;37.54;68.91;155506.31;5071284;28;20555;-64
2022/07/31 08:28:06;;;;;;;5.85;5.63;;;;;;;37.47;67.03;155489.56;5070980;28;20259;-64
2022/07/31 08:30:36;;;;;;;6.05;5.57;;;;;;;37.70;70.62;155547.50;5070933;28;20211;-63
2022/07/31 08:33:03;;;;;;;5.25;5.15;;;;;;;37.79;65.83;155571.97;5070939;28;20192;-64
2022/07/31 08:35:29;;;;;;;5.68;5.28;;;;;;;37.94;65.76;155609.25;5070896;28;20258;-64
2022/07/31 08:37:58;;;;;;;6.00;5.80;;;;;;;37.54;65.73;155506.31;5070839;28;20199;-63
2022/07/31 08:40:25;;;;;;;5.50;5.30;;;;;;;37.14;65.95;155404.59;5070902;28;20181;-64
2022/07/31 08:42:52;;;;;;;6.07;5.68;;;;;;;36.42;69.36;155221.84;5069743;28;20185;-63
2022/07/31 08:45:19;;;;;;;6.22;5.82;;;;;;;36.55;72.56;155255.31;5070866;28;20231;-64
2022/07/31 08:47:48;;;;;;;5.55;5.10;;;;;;;36.47;70.90;155236.03;5070806;28;20195;-63
2022/07/31 08:50:15;;;;;;;6.00;5.68;;;;;;;36.14;71.91;155151.16;5070778;28;20303;-63
2022/07/31 08:52:43;;;;;;;5.90;5.70;;;;;;;35.95;71.17;155102.22;5071012;28;20640;-63
2022/07/31 08:55:13;;;;;;;5.53;5.10;;;;;;;36.09;70.44;155138.22;5070801;28;20193;-63
2022/07/31 08:57:40;;;;;;;5.30;5.18;;;;;;;36.02;74.27;155120.25;5071148;28;20185;-63
2022/07/31 09:00:11;;;;;;;6.40;5.95;;;;;;;36.43;74.66;155225.72;5074279;28;20196;-63
2022/07/31 09:02:40;;;;;;;6.13;5.68;;;;;;;36.59;75.51;155266.94;5074647;28;20189;-63
2022/07/31 09:05:08;;;;;;;5.32;5.13;;;;;;;36.52;76.49;155248.88;5074062;28;20187;-63
2022/07/31 09:07:37;;;;;;;5.85;5.50;;;;;;;36.44;75.48;155228.31;5074172;28;20177;-63
2022/07/31 09:10:08;;;;;;;6.50;6.20;;;;;;;35.96;75.42;155104.78;5073975;28;20212;-63
2022/07/31 09:12:37;;;;;;;5.80;5.43;;;;;;;35.97;78.34;155108.66;5074126;28;20339;-64
2022/07/31 09:15:04;;;;;;;6.00;5.70;;;;;;;35.76;77.49;155053.38;5073997;28;20196;-63
2022/07/31 09:17:35;;;;;;;6.07;5.70;;;;;;;35.88;77.67;155085.53;5074199;28;20187;-63
2022/07/31 09:20:04;;;;;;;6.13;5.93;;;;;;;35.65;82.28;155027.66;5074138;28;20189;-63
2022/07/31 09:22:32;;;;;;;6.68;6.45;;;;;;;35.50;77.89;154989.06;5073867;28;20559;-63
2022/07/31 09:25:11;;;;;;;6.70;6.40;;;;;;;35.26;82.29;154927.38;5074308;28;20181;-63
2022/07/31 09:27:40;;;;;;;5.70;5.50;;;;;;;35.14;81.56;154896.44;5072891;28;20374;-63
2022/07/31 09:30:08;;;;;;;5.95;5.75;;;;;;;34.74;86.07;154796.22;5073900;28;20654;-63
2022/07/31 09:32:36;;;;;;;6.20;5.88;;;;;;;34.40;89.17;154710.09;5073576;28;20272;-63
2022/07/31 09:35:10;;;;;;;5.63;5.25;;;;;;;34.21;89.48;154661.25;5073554;28;20201;-64
2022/07/31 09:37:38;;;;;;;5.53;5.35;;;;;;;34.08;91.10;154626.50;5073922;28;20641;-63
2022/07/31 09:40:08;;;;;;;5.90;5.53;;;;;;;33.94;92.27;154591.88;5073780;28;20630;-63
2022/07/31 09:42:41;;;;;;;5.13;4.95;;;;;;;34.17;94.26;154649.69;5073753;28;20567;-63
2022/07/31 09:45:22;;;;;;;5.85;5.65;;;;;;;34.48;89.66;154729.34;5073776;28;20273;-63
2022/07/31 09:48:03;;;;;;;5.60;5.30;;;;;;;34.96;92.50;154850.19;5073675;28;20769;-63
2022/07/31 09:50:30;;;;;;;6.38;5.75;;;;;;;35.39;85.13;154960.78;5073239;28;20296;-63
2022/07/31 09:52:58;;;;;;;5.50;5.30;;;;;;;35.62;84.08;155019.91;5073190;28;20181;-63
2022/07/31 09:55:25;;;;;;;7.32;5.65;;;;;;;35.65;87.96;155027.66;5073379;28;20192;-63
2022/07/31 09:57:55;;;;;;;6.00;5.50;;;;;;;35.36;94.47;154951.75;5073186;28;20188;-63
2022/07/31 10:00:23;;;;;;;5.90;5.70;;;;;;;35.09;98.17;154884.91;5073189;28;20189;-63
2022/07/31 10:02:52;;;;;;;6.93;6.18;;;;;;;34.74;100.00;154796.22;5073482;28;20666;-66
2022/07/31 10:05:21;;;;;;;6.25;5.65;;;;;;;34.37;100.00;154702.34;5073117;28;20184;-64
2022/07/31 10:07:49;;;;;;;6.07;5.68;;;;;;;34.33;100.00;154692.06;5073333;28;20189;-64
2022/07/31 10:10:17;;;;;;;5.53;5.22;;;;;;;34.71;100.00;154788.47;5072505;28;20662;-63
2022/07/31 10:12:49;;;;;;;5.65;5.45;;;;;;;34.84;100.00;154821.91;5071926;28;20231;-64
2022/07/31 10:15:20;;;;;;;5.28;4.97;;;;;;;35.15;100.00;154900.34;5071695;28;20188;-63
2022/07/31 10:17:49;;;;;;;5.00;4.65;;;;;;;35.29;98.24;154936.34;5072701;28;20185;-63
2022/07/31 10:20:20;;;;;;;5.00;4.80;;;;;;;35.01;95.06;154864.28;5072740;28;20192;-63
2022/07/31 10:22:49;;;;;;;5.47;5.18;;;;;;;35.26;94.93;154927.38;5072934;28;20246;-63
2022/07/31 10:25:20;;;;;;;5.22;4.93;;;;;;;35.53;95.83;154996.75;5072825;28;20191;-63
2022/07/31 10:27:48;;;;;;;5.15;4.95;;;;;;;35.70;88.39;155040.50;5072856;28;20184;-63
2022/07/31 10:30:17;;;;;;;5.88;4.93;;;;;;;36.08;88.94;155135.66;5072763;28;20650;-64
2022/07/31 10:32:44;;;;;;;5.10;4.80;;;;;;;36.12;86.56;155145.97;5072465;28;20188;-63
2022/07/31 10:35:11;;;;;;;5.03;4.75;;;;;;;36.35;84.06;155205.16;5072746;28;20194;-63
2022/07/31 10:37:43;;;;;;;4.80;4.60;;;;;;;36.56;83.01;155259.19;5072414;28;20195;-63
2022/07/31 10:40:25;;;;;;;4.70;4.50;;;;;;;36.79;86.38;155315.81;5072632;28;20189;-63
2022/07/31 10:43:01;;;;;;;5.70;5.30;;;;;;;36.90;81.51;155344.13;5072574;28;20268;-65
2022/07/31 10:45:30;;;;;;;4.63;4.53;;;;;;;36.85;79.57;155331.25;5072333;28;20242;-63
2022/07/31 10:48:00;;;;;;;4.55;4.35;;;;;;;36.50;80.87;155243.72;5070910;28;20248;-63
2022/07/31 10:50:29;;;;;;;4.95;4.75;;;;;;;36.35;79.84;155205.16;5072084;28;20193;-63
2022/07/31 10:53:07;;;;;;;4.72;4.63;;;;;;;35.99;81.85;155112.50;5072236;28;20188;-63
2022/07/31 10:55:34;;;;;;;4.90;4.80;;;;;;;35.80;82.38;155063.66;5072405;28;20655;-63
2022/07/31 10:58:07;;;;;;;6.70;4.95;;;;;;;35.59;81.26;155012.19;5072268;28;20630;-63
2022/07/31 11:00:37;;;;;;;4.90;4.80;;;;;;;35.18;83.63;154906.81;5071939;28;20188;-63
2022/07/31 11:03:17;;;;;;;5.63;5.07;;;;;;;34.99;84.93;154857.91;5072392;28;20674;-63
2022/07/31 11:05:55;;;;;;;5.13;5.03;;;;;;;34.74;89.48;154796.22;5071787;28;20204;-64
2022/07/31 11:08:22;;;;;;;5.55;5.32;;;;;;;34.70;90.71;154785.94;5072390;28;20708;-64
2022/07/31 11:10:50;;;;;;;4.82;4.63;;;;;;;34.62;90.44;154764.06;5072043;28;20208;-63
2022/07/31 11:13:17;;;;;;;4.82;4.72;;;;;;;34.51;93.71;154737.06;5071943;28;20297;-63
2022/07/31 11:15:46;;;;;;;5.28;4.88;;;;;;;34.16;94.18;154647.16;5071816;28;20308;-63
2022/07/31 11:18:14;;;;;;;4.80;4.50;;;;;;;34.35;94.05;154695.94;5072244;28;20208;-63
2022/07/31 11:20:45;;;;;;;5.38;5.18;;;;;;;34.30;94.44;154683.09;5072003;28;20279;-66
2022/07/31 11:23:15;;;;;;;5.50;5.30;;;;;;;34.12;92.98;154636.84;5071020;28;20195;-63